sensor_id;sensor_type;location;lat;lon;timestamp;P1;durP1;ratioP1;P2;durP2;ratioP2
71821;SDS011;64096;52.548;13.406;2023-07-20T06:04:58;3.75;;;2.75;;
71821;SDS011;64096;52.548;13.406;2023-07-20T06:07:24;4.10;;;3.00;;
71821;SDS011;64096;52.548;13.406;2023-07-20T06:09:51;3.58;;;2.25;;
71821;SDS011;64096;52.548;13.406;2023-07-20T06:12:18;4.22;;;2.83;;
71821;SDS011;64096;52.548;13.406;2023-07-20T06:14:44;3.17;;;2.22;;
71821;SDS011;64096;52.548;13.406;2023-07-20T06:17:11;3.33;;;2.42;;
71821;SDS011;64096;52.548;13.406;2023-07-20T06:19:37;4.28;;;2.97;;
71821;SDS011;64096;52.548;13.406;2023-07-20T06:22:03;3.92;;;2.13;;
71821;SDS011;64096;52.548;13.406;2023-07-20T06:24:29;3.67;;;2.38;;
71821;SDS011;64096;52.548;13.406;2023-07-20T06:26:55;4.35;;;3.15;;
71821;SDS011;64096;52.548;13.406;2023-07-20T06:29:22;2.85;;;2.20;;
71821;SDS011;64096;52.548;13.406;2023-07-20T06:31:48;3.75;;;2.30;;
71821;SDS011;64096;52.548;13.406;2023-07-20T06:34:14;3.00;;;2.05;;
71821;SDS011;64096;52.548;13.406;2023-07-20T06:36:40;3.22;;;2.20;;
71821;SDS011;64096;52.548;13.406;2023-07-20T06:39:06;3.53;;;2.45;;
71821;SDS011;64096;52.548;13.406;2023-07-20T06:41:32;3.22;;;2.30;;
71821;SDS011;64096;52.548;13.406;2023-07-20T06:43:58;2.97;;;1.98;;
71821;SDS011;64096;52.548;13.406;2023-07-20T06:46:27;2.83;;;1.80;;
71821;SDS011;64096;52.548;13.406;2023-07-20T06:48:53;2.42;;;1.60;;
71821;SDS011;64096;52.548;13.406;2023-07-20T06:51:20;2.50;;;1.60;;
71821;SDS011;64096;52.548;13.406;2023-07-20T06:53:47;3.58;;;1.80;;
71821;SDS011;64096;52.548;13.406;2023-07-20T06:56:13;2.55;;;1.60;;
71821;SDS011;64096;52.548;13.406;2023-07-20T06:58:39;2.95;;;1.48;;
71821;SDS011;64096;52.548;13.406;2023-07-20T07:01:06;2.97;;;1.88;;
71821;SDS011;64096;52.548;13.406;2023-07-20T07:03:32;2.85;;;1.38;;
71821;SDS011;64096;52.548;13.406;2023-07-20T07:05:58;2.47;;;1.60;;
71821;SDS011;64096;52.548;13.406;2023-07-20T07:08:25;1.92;;;1.10;;
71821;SDS011;64096;52.548;13.406;2023-07-20T07:10:51;2.33;;;1.20;;
71821;SDS011;64096;52.548;13.406;2023-07-20T07:13:18;1.70;;;1.08;;
71821;SDS011;64096;52.548;13.406;2023-07-20T07:15:44;2.60;;;1.10;;
71821;SDS011;64096;52.548;13.406;2023-07-20T07:18:11;1.52;;;0.88;;
71821;SDS011;64096;52.548;13.406;2023-07-20T07:20:37;2.40;;;0.63;;
71821;SDS011;64096;52.548;13.406;2023-07-20T07:23:03;1.63;;;0.85;;
71821;SDS011;64096;52.548;13.406;2023-07-20T07:25:29;2.58;;;0.90;;
71821;SDS011;64096;52.548;13.406;2023-07-20T07:27:57;1.05;;;0.60;;
71821;SDS011;64096;52.548;13.406;2023-07-20T07:30:23;2.53;;;0.90;;
71821;SDS011;64096;52.548;13.406;2023-07-20T07:32:49;2.53;;;1.00;;
71821;SDS011;64096;52.548;13.406;2023-07-20T07:35:15;1.55;;;0.70;;
71821;SDS011;64096;52.548;13.406;2023-07-20T07:37:41;1.00;;;0.60;;
71821;SDS011;64096;52.548;13.406;2023-07-20T07:40:07;2.17;;;0.90;;
71821;SDS011;64096;52.548;13.406;2023-07-20T07:42:34;1.05;;;0.60;;
71821;SDS011;64096;52.548;13.406;2023-07-20T07:45:00;1.77;;;0.73;;
71821;SDS011;64096;52.548;13.406;2023-07-20T07:47:26;1.70;;;0.80;;
71821;SDS011;64096;52.548;13.406;2023-07-20T07:49:52;1.67;;;0.80;;
71821;SDS011;64096;52.548;13.406;2023-07-20T07:52:18;1.38;;;0.63;;
71821;SDS011;64096;52.548;13.406;2023-07-20T07:54:44;0.77;;;0.55;;
71821;SDS011;64096;52.548;13.406;2023-07-20T07:57:10;1.40;;;0.80;;
71821;SDS011;64096;52.548;13.406;2023-07-20T07:59:36;1.58;;;0.68;;
71821;SDS011;64096;52.548;13.406;2023-07-20T08:02:04;1.23;;;0.68;;
71821;SDS011;64096;52.548;13.406;2023-07-20T08:04:30;0.93;;;0.52;;
71821;SDS011;64096;52.548;13.406;2023-07-20T08:06:56;2.13;;;0.75;;
71821;SDS011;64096;52.548;13.406;2023-07-20T08:09:22;1.33;;;0.55;;
71821;SDS011;64096;52.548;13.406;2023-07-20T08:11:49;1.08;;;0.60;;
71821;SDS011;64096;52.548;13.406;2023-07-20T08:14:16;1.58;;;0.60;;
71821;SDS011;64096;52.548;13.406;2023-07-20T08:16:42;0.35;;;0.32;;
71821;SDS011;64096;52.548;13.406;2023-07-20T08:19:09;1.05;;;0.63;;
71821;SDS011;64096;52.548;13.406;2023-07-20T08:21:35;2.30;;;0.85;;
71821;SDS011;64096;52.548;13.406;2023-07-20T08:24:01;2.45;;;0.63;;
71821;SDS011;64096;52.548;13.406;2023-07-20T08:26:27;1.23;;;0.60;;
71821;SDS011;64096;52.548;13.406;2023-07-20T08:28:53;0.75;;;0.40;;
71821;SDS011;64096;52.548;13.406;2023-07-20T08:31:20;0.80;;;0.60;;
71821;SDS011;64096;52.548;13.406;2023-07-20T08:33:49;2.30;;;0.50;;
71821;SDS011;64096;52.548;13.406;2023-07-20T08:36:16;1.30;;;0.60;;
71821;SDS011;64096;52.548;13.406;2023-07-20T08:38:42;1.63;;;0.90;;
71821;SDS011;64096;52.548;13.406;2023-07-20T08:41:08;1.02;;;0.30;;
71821;SDS011;64096;52.548;13.406;2023-07-20T08:43:34;0.70;;;0.35;;
71821;SDS011;64096;52.548;13.406;2023-07-20T08:46:02;0.52;;;0.50;;
71821;SDS011;64096;52.548;13.406;2023-07-20T08:48:29;0.40;;;0.30;;
71821;SDS011;64096;52.548;13.406;2023-07-20T08:50:56;0.60;;;0.30;;
71821;SDS011;64096;52.548;13.406;2023-07-20T08:53:25;0.40;;;0.32;;
71821;SDS011;64096;52.548;13.406;2023-07-20T08:55:51;1.85;;;1.30;;
71821;SDS011;64096;52.548;13.406;2023-07-20T08:58:17;0.50;;;0.50;;
71821;SDS011;64096;52.548;13.406;2023-07-20T09:00:44;2.10;;;0.80;;
71821;SDS011;64096;52.548;13.406;2023-07-20T09:03:10;6.35;;;0.50;;
71821;SDS011;64096;52.548;13.406;2023-07-20T09:05:36;1.05;;;0.45;;
71821;SDS011;64096;52.548;13.406;2023-07-20T09:08:05;0.52;;;0.30;;
71821;SDS011;64096;52.548;13.406;2023-07-20T09:10:31;1.08;;;0.80;;
71821;SDS011;64096;52.548;13.406;2023-07-20T09:12:57;0.95;;;0.50;;
71821;SDS011;64096;52.548;13.406;2023-07-20T09:15:23;1.50;;;0.50;;
71821;SDS011;64096;52.548;13.406;2023-07-20T09:17:50;2.70;;;0.60;;
71821;SDS011;64096;52.548;13.406;2023-07-20T09:20:18;0.88;;;0.40;;
71821;SDS011;64096;52.548;13.406;2023-07-20T09:22:45;0.30;;;0.30;;
71821;SDS011;64096;52.548;13.406;2023-07-20T09:25:15;0.73;;;0.52;;
71821;SDS011;64096;52.548;13.406;2023-07-20T09:27:42;0.88;;;0.47;;
71821;SDS011;64096;52.548;13.406;2023-07-20T09:30:09;1.08;;;0.40;;
71821;SDS011;64096;52.548;13.406;2023-07-20T09:32:42;1.67;;;0.57;;
71821;SDS011;64096;52.548;13.406;2023-07-20T09:35:15;1.08;;;0.47;;
71821;SDS011;64096;52.548;13.406;2023-07-20T09:38:02;1.25;;;0.30;;
71821;SDS011;64096;52.548;13.406;2023-07-20T09:40:28;0.40;;;0.30;;
71821;SDS011;64096;52.548;13.406;2023-07-20T09:42:54;0.68;;;0.40;;
71821;SDS011;64096;52.548;13.406;2023-07-20T09:45:49;1.38;;;0.40;;
71821;SDS011;64096;52.548;13.406;2023-07-20T09:48:15;3.03;;;0.82;;
71821;SDS011;64096;52.548;13.406;2023-07-20T09:50:42;3.92;;;0.57;;
71821;SDS011;64096;52.548;13.406;2023-07-20T09:53:11;0.50;;;0.30;;
71821;SDS011;64096;52.548;13.406;2023-07-20T09:55:38;1.40;;;0.52;;
71821;SDS011;64096;52.548;13.406;2023-07-20T09:58:05;0.82;;;0.50;;
71821;SDS011;64096;52.548;13.406;2023-07-20T10:00:34;0.63;;;0.40;;
71821;SDS011;64096;52.548;13.406;2023-07-20T10:03:02;0.90;;;0.50;;
71821;SDS011;64096;52.548;13.406;2023-07-20T10:05:29;1.95;;;0.52;;
71821;SDS011;64096;52.548;13.406;2023-07-20T10:07:59;0.77;;;0.50;;
71821;SDS011;64096;52.548;13.406;2023-07-20T10:10:25;0.77;;;0.40;;
71821;SDS011;64096;52.548;13.406;2023-07-20T10:12:51;2.10;;;0.40;;
71821;SDS011;64096;52.548;13.406;2023-07-20T10:17:48;0.90;;;0.57;;
71821;SDS011;64096;52.548;13.406;2023-07-20T10:20:16;0.68;;;0.50;;
71821;SDS011;64096;52.548;13.406;2023-07-20T10:22:42;1.23;;;0.70;;
71821;SDS011;64096;52.548;13.406;2023-07-20T10:25:10;2.53;;;0.90;;
71821;SDS011;64096;52.548;13.406;2023-07-20T10:27:36;1.90;;;0.70;;
71821;SDS011;64096;52.548;13.406;2023-07-20T10:30:02;1.65;;;0.52;;
71821;SDS011;64096;52.548;13.406;2023-07-20T10:32:29;0.65;;;0.40;;
71821;SDS011;64096;52.548;13.406;2023-07-20T10:34:55;0.90;;;0.50;;
71821;SDS011;64096;52.548;13.406;2023-07-20T10:43:06;0.77;;;0.50;;
71821;SDS011;64096;52.548;13.406;2023-07-20T10:45:39;1.25;;;0.47;;
71821;SDS011;64096;52.548;13.406;2023-07-20T10:48:12;0.68;;;0.40;;
71821;SDS011;64096;52.548;13.406;2023-07-20T10:50:40;3.30;;;1.70;;
71821;SDS011;64096;52.548;13.406;2023-07-20T10:53:10;1.77;;;0.95;;
71821;SDS011;64096;52.548;13.406;2023-07-20T10:55:37;1.17;;;0.50;;
71821;SDS011;64096;52.548;13.406;2023-07-20T10:58:07;0.93;;;0.50;;
71821;SDS011;64096;52.548;13.406;2023-07-20T11:00:36;1.85;;;0.60;;
71821;SDS011;64096;52.548;13.406;2023-07-20T11:03:02;0.93;;;0.50;;
71821;SDS011;64096;52.548;13.406;2023-07-20T11:05:35;0.73;;;0.40;;
71821;SDS011;64096;52.548;13.406;2023-07-20T11:10:28;0.75;;;0.40;;
71821;SDS011;64096;52.548;13.406;2023-07-20T11:16:11;0.73;;;0.43;;
71821;SDS011;64096;52.548;13.406;2023-07-20T11:18:32;0.95;;;0.40;;
71821;SDS011;64096;52.548;13.406;2023-07-20T11:20:59;0.60;;;0.50;;
71821;SDS011;64096;52.548;13.406;2023-07-20T11:23:25;1.15;;;0.55;;
71821;SDS011;64096;52.548;13.406;2023-07-20T11:25:52;1.13;;;0.40;;
71821;SDS011;64096;52.548;13.406;2023-07-20T11:28:18;0.85;;;0.50;;
71821;SDS011;64096;52.548;13.406;2023-07-20T11:30:44;1.05;;;0.63;;
71821;SDS011;64096;52.548;13.406;2023-07-20T11:33:10;0.68;;;0.38;;
71821;SDS011;64096;52.548;13.406;2023-07-20T11:35:43;5.25;;;4.75;;
71821;SDS011;64096;52.548;13.406;2023-07-20T11:38:11;1.77;;;1.20;;
71821;SDS011;64096;52.548;13.406;2023-07-20T11:40:42;1.50;;;0.85;;
71821;SDS011;64096;52.548;13.406;2023-07-20T11:43:08;0.88;;;0.40;;
71821;SDS011;64096;52.548;13.406;2023-07-20T11:45:34;1.85;;;0.65;;
71821;SDS011;64096;52.548;13.406;2023-07-20T11:48:00;2.17;;;0.43;;
71821;SDS011;64096;52.548;13.406;2023-07-20T11:50:26;0.68;;;0.40;;
71821;SDS011;64096;52.548;13.406;2023-07-20T11:52:52;1.13;;;0.45;;
71821;SDS011;64096;52.548;13.406;2023-07-20T11:55:19;0.35;;;0.30;;
71821;SDS011;64096;52.548;13.406;2023-07-20T11:58:03;0.88;;;0.40;;
71821;SDS011;64096;52.548;13.406;2023-07-20T12:00:30;0.98;;;0.32;;
71821;SDS011;64096;52.548;13.406;2023-07-20T12:02:56;1.20;;;0.60;;
71821;SDS011;64096;52.548;13.406;2023-07-20T12:05:22;0.52;;;0.40;;
71821;SDS011;64096;52.548;13.406;2023-07-20T12:07:49;0.77;;;0.40;;
71821;SDS011;64096;52.548;13.406;2023-07-20T12:10:27;1.42;;;0.50;;
71821;SDS011;64096;52.548;13.406;2023-07-20T12:12:54;0.82;;;0.50;;
71821;SDS011;64096;52.548;13.406;2023-07-20T12:15:20;0.47;;;0.35;;
71821;SDS011;64096;52.548;13.406;2023-07-20T12:17:51;1.20;;;0.63;;
71821;SDS011;64096;52.548;13.406;2023-07-20T12:20:27;1.50;;;0.50;;
71821;SDS011;64096;52.548;13.406;2023-07-20T12:22:55;0.47;;;0.30;;
71821;SDS011;64096;52.548;13.406;2023-07-20T12:25:22;0.60;;;0.40;;
71821;SDS011;64096;52.548;13.406;2023-07-20T12:27:48;3.20;;;1.55;;
71821;SDS011;64096;52.548;13.406;2023-07-20T12:30:14;3.50;;;1.52;;
71821;SDS011;64096;52.548;13.406;2023-07-20T12:32:40;1.35;;;0.57;;
71821;SDS011;64096;52.548;13.406;2023-07-20T12:35:07;0.95;;;0.30;;
71821;SDS011;64096;52.548;13.406;2023-07-20T12:37:33;1.27;;;0.60;;
71821;SDS011;64096;52.548;13.406;2023-07-20T12:39:59;1.00;;;0.57;;
71821;SDS011;64096;52.548;13.406;2023-07-20T12:42:25;2.03;;;0.40;;
71821;SDS011;64096;52.548;13.406;2023-07-20T12:44:51;1.10;;;0.50;;
71821;SDS011;64096;52.548;13.406;2023-07-20T12:47:17;0.82;;;0.47;;
71821;SDS011;64096;52.548;13.406;2023-07-20T12:49:44;0.52;;;0.40;;
71821;SDS011;64096;52.548;13.406;2023-07-20T12:52:11;0.88;;;0.40;;
71821;SDS011;64096;52.548;13.406;2023-07-20T12:54:38;0.55;;;0.32;;
71821;SDS011;64096;52.548;13.406;2023-07-20T12:57:04;0.43;;;0.20;;
71821;SDS011;64096;52.548;13.406;2023-07-20T12:59:30;0.57;;;0.40;;
71821;SDS011;64096;52.548;13.406;2023-07-20T13:01:56;1.73;;;0.50;;
71821;SDS011;64096;52.548;13.406;2023-07-20T13:04:22;1.45;;;0.40;;
71821;SDS011;64096;52.548;13.406;2023-07-20T13:06:49;2.58;;;1.52;;
71821;SDS011;64096;52.548;13.406;2023-07-20T13:09:15;0.93;;;0.50;;
71821;SDS011;64096;52.548;13.406;2023-07-20T13:11:41;1.25;;;0.45;;
71821;SDS011;64096;52.548;13.406;2023-07-20T13:14:07;1.00;;;0.50;;
71821;SDS011;64096;52.548;13.406;2023-07-20T13:16:33;1.80;;;0.70;;
71821;SDS011;64096;52.548;13.406;2023-07-20T13:19:00;1.48;;;0.60;;
71821;SDS011;64096;52.548;13.406;2023-07-20T13:21:27;0.75;;;0.40;;
71821;SDS011;64096;52.548;13.406;2023-07-20T13:23:54;1.73;;;0.50;;
71821;SDS011;64096;52.548;13.406;2023-07-20T13:26:20;1.45;;;0.70;;
71821;SDS011;64096;52.548;13.406;2023-07-20T13:28:46;1.50;;;0.63;;
71821;SDS011;64096;52.548;13.406;2023-07-20T13:31:12;0.90;;;0.30;;
71821;SDS011;64096;52.548;13.406;2023-07-20T13:33:38;0.60;;;0.32;;
71821;SDS011;64096;52.548;13.406;2023-07-20T13:36:05;0.90;;;0.40;;
71821;SDS011;64096;52.548;13.406;2023-07-20T13:38:31;0.50;;;0.40;;
71821;SDS011;64096;52.548;13.406;2023-07-20T13:40:57;1.08;;;0.40;;
71821;SDS011;64096;52.548;13.406;2023-07-20T13:43:23;0.55;;;0.30;;
71821;SDS011;64096;52.548;13.406;2023-07-20T13:45:50;0.60;;;0.40;;
71821;SDS011;64096;52.548;13.406;2023-07-20T13:48:16;0.40;;;0.35;;
71821;SDS011;64096;52.548;13.406;2023-07-20T13:50:45;1.15;;;0.50;;
71821;SDS011;64096;52.548;13.406;2023-07-20T13:53:11;1.65;;;0.65;;
71821;SDS011;64096;52.548;13.406;2023-07-20T13:55:38;1.10;;;0.40;;
71821;SDS011;64096;52.548;13.406;2023-07-20T13:58:04;1.10;;;0.50;;
